sensor_id;sensor_type;location;lat;lon;timestamp;P1;durP1;ratioP1;P2;durP2;ratioP2
14472;SDS011;7322;50.872;4.386;2023-02-28T00:00:46;1.80;;;1.57;;
14472;SDS011;7322;50.872;4.386;2023-02-28T00:03:19;1.80;;;1.20;;
14472;SDS011;7322;50.872;4.386;2023-02-28T00:13:51;1.50;;;1.37;;
14472;SDS011;7322;50.872;4.386;2023-02-28T00:16:30;2.00;;;1.30;;
14472;SDS011;7322;50.872;4.386;2023-02-28T00:18:57;1.70;;;1.20;;
14472;SDS011;7322;50.872;4.386;2023-02-28T00:21:28;1.40;;;1.30;;
14472;SDS011;7322;50.872;4.386;2023-02-28T00:23:55;1.73;;;1.50;;
14472;SDS011;7322;50.872;4.386;2023-02-28T00:26:22;2.17;;;1.60;;
14472;SDS011;7322;50.872;4.386;2023-02-28T00:31:52;2.57;;;1.30;;
14472;SDS011;7322;50.872;4.386;2023-02-28T00:34:22;1.53;;;1.43;;
14472;SDS011;7322;50.872;4.386;2023-02-28T00:36:53;1.60;;;1.40;;
14472;SDS011;7322;50.872;4.386;2023-02-28T00:39:20;1.63;;;1.20;;
14472;SDS011;7322;50.872;4.386;2023-02-28T00:41:49;1.90;;;1.43;;
14472;SDS011;7322;50.872;4.386;2023-02-28T00:44:22;1.90;;;1.40;;
14472;SDS011;7322;50.872;4.386;2023-02-28T00:46:51;1.47;;;1.37;;
14472;SDS011;7322;50.872;4.386;2023-02-28T00:51:59;1.50;;;1.23;;
14472;SDS011;7322;50.872;4.386;2023-02-28T00:54:26;1.53;;;1.30;;
14472;SDS011;7322;50.872;4.386;2023-02-28T00:57:01;1.60;;;1.27;;
14472;SDS011;7322;50.872;4.386;2023-02-28T00:59:36;1.67;;;1.20;;
14472;SDS011;7322;50.872;4.386;2023-02-28T01:02:14;1.63;;;1.17;;
14472;SDS011;7322;50.872;4.386;2023-02-28T01:04:49;1.80;;;1.27;;
14472;SDS011;7322;50.872;4.386;2023-02-28T01:07:23;1.77;;;1.40;;
14472;SDS011;7322;50.872;4.386;2023-02-28T01:09:52;2.57;;;1.40;;
14472;SDS011;7322;50.872;4.386;2023-02-28T01:12:18;1.40;;;1.30;;
14472;SDS011;7322;50.872;4.386;2023-02-28T01:17:52;1.50;;;1.20;;
14472;SDS011;7322;50.872;4.386;2023-02-28T01:20:20;1.80;;;1.30;;
14472;SDS011;7322;50.872;4.386;2023-02-28T01:25:45;1.73;;;1.33;;
14472;SDS011;7322;50.872;4.386;2023-02-28T01:28:12;1.60;;;1.30;;
14472;SDS011;7322;50.872;4.386;2023-02-28T01:30:52;2.50;;;1.20;;
14472;SDS011;7322;50.872;4.386;2023-02-28T01:36:14;1.80;;;1.50;;
14472;SDS011;7322;50.872;4.386;2023-02-28T01:38:50;1.70;;;1.30;;
14472;SDS011;7322;50.872;4.386;2023-02-28T01:41:21;1.47;;;1.23;;
14472;SDS011;7322;50.872;4.386;2023-02-28T01:43:56;1.33;;;1.23;;
14472;SDS011;7322;50.872;4.386;2023-02-28T01:46:30;2.00;;;1.30;;
14472;SDS011;7322;50.872;4.386;2023-02-28T01:49:06;1.53;;;1.40;;
14472;SDS011;7322;50.872;4.386;2023-02-28T01:51:44;1.27;;;1.10;;
14472;SDS011;7322;50.872;4.386;2023-02-28T01:56:52;2.17;;;1.37;;
14472;SDS011;7322;50.872;4.386;2023-02-28T01:59:37;1.67;;;1.30;;
14472;SDS011;7322;50.872;4.386;2023-02-28T02:02:12;1.60;;;1.33;;
14472;SDS011;7322;50.872;4.386;2023-02-28T02:04:53;3.60;;;1.40;;
14472;SDS011;7322;50.872;4.386;2023-02-28T02:07:22;2.27;;;1.20;;
14472;SDS011;7322;50.872;4.386;2023-02-28T02:10:00;1.77;;;1.40;;
14472;SDS011;7322;50.872;4.386;2023-02-28T02:12:31;2.70;;;1.50;;
14472;SDS011;7322;50.872;4.386;2023-02-28T02:15:11;1.47;;;1.30;;
14472;SDS011;7322;50.872;4.386;2023-02-28T02:17:52;1.70;;;1.40;;
14472;SDS011;7322;50.872;4.386;2023-02-28T02:23:59;1.17;;;1.07;;
14472;SDS011;7322;50.872;4.386;2023-02-28T02:26:57;1.47;;;1.30;;
14472;SDS011;7322;50.872;4.386;2023-02-28T02:36:17;2.27;;;1.47;;
14472;SDS011;7322;50.872;4.386;2023-02-28T02:38:51;1.50;;;1.40;;
14472;SDS011;7322;50.872;4.386;2023-02-28T02:41:23;1.50;;;1.33;;
14472;SDS011;7322;50.872;4.386;2023-02-28T02:43:56;1.20;;;1.10;;
14472;SDS011;7322;50.872;4.386;2023-02-28T02:46:32;1.90;;;1.23;;
14472;SDS011;7322;50.872;4.386;2023-02-28T02:51:57;1.23;;;1.13;;
14472;SDS011;7322;50.872;4.386;2023-02-28T02:54:30;1.63;;;1.33;;
14472;SDS011;7322;50.872;4.386;2023-02-28T02:57:08;2.57;;;1.50;;
14472;SDS011;7322;50.872;4.386;2023-02-28T02:59:52;1.60;;;1.20;;
14472;SDS011;7322;50.872;4.386;2023-02-28T03:02:22;1.83;;;1.40;;
14472;SDS011;7322;50.872;4.386;2023-02-28T03:04:52;1.27;;;1.13;;
14472;SDS011;7322;50.872;4.386;2023-02-28T03:07:45;1.57;;;1.30;;
14472;SDS011;7322;50.872;4.386;2023-02-28T03:25:15;2.00;;;1.23;;
14472;SDS011;7322;50.872;4.386;2023-02-28T03:27:54;1.27;;;1.13;;
14472;SDS011;7322;50.872;4.386;2023-02-28T03:30:33;1.40;;;1.30;;
14472;SDS011;7322;50.872;4.386;2023-02-28T03:33:06;1.30;;;1.20;;
14472;SDS011;7322;50.872;4.386;2023-02-28T03:35:40;1.73;;;1.50;;
14472;SDS011;7322;50.872;4.386;2023-02-28T03:38:21;1.43;;;1.20;;
14472;SDS011;7322;50.872;4.386;2023-02-28T03:40:55;1.27;;;1.13;;
14472;SDS011;7322;50.872;4.386;2023-02-28T03:46:12;1.60;;;1.37;;
14472;SDS011;7322;50.872;4.386;2023-02-28T03:48:49;1.87;;;1.40;;
14472;SDS011;7322;50.872;4.386;2023-02-28T03:51:22;1.63;;;1.00;;
14472;SDS011;7322;50.872;4.386;2023-02-28T03:53:52;1.30;;;1.20;;
14472;SDS011;7322;50.872;4.386;2023-02-28T03:56:24;1.60;;;1.30;;
14472;SDS011;7322;50.872;4.386;2023-02-28T04:01:52;1.43;;;1.33;;
14472;SDS011;7322;50.872;4.386;2023-02-28T04:04:21;1.33;;;1.20;;
14472;SDS011;7322;50.872;4.386;2023-02-28T04:09:49;1.40;;;1.30;;
14472;SDS011;7322;50.872;4.386;2023-02-28T04:12:19;1.43;;;1.30;;
14472;SDS011;7322;50.872;4.386;2023-02-28T04:14:52;1.40;;;1.30;;
14472;SDS011;7322;50.872;4.386;2023-02-28T04:22:52;1.20;;;1.10;;
14472;SDS011;7322;50.872;4.386;2023-02-28T04:25:22;1.33;;;1.20;;
14472;SDS011;7322;50.872;4.386;2023-02-28T04:28:03;1.70;;;1.30;;
14472;SDS011;7322;50.872;4.386;2023-02-28T04:30:53;1.27;;;1.17;;
14472;SDS011;7322;50.872;4.386;2023-02-28T04:33:22;1.60;;;1.10;;
14472;SDS011;7322;50.872;4.386;2023-02-28T04:35:57;1.47;;;1.30;;
14472;SDS011;7322;50.872;4.386;2023-02-28T04:38:27;1.30;;;1.17;;
14472;SDS011;7322;50.872;4.386;2023-02-28T04:43:53;1.30;;;1.20;;
14472;SDS011;7322;50.872;4.386;2023-02-28T04:46:22;1.73;;;1.23;;
14472;SDS011;7322;50.872;4.386;2023-02-28T04:48:52;1.47;;;1.37;;
14472;SDS011;7322;50.872;4.386;2023-02-28T04:51:19;1.47;;;1.37;;
14472;SDS011;7322;50.872;4.386;2023-02-28T04:56:29;1.40;;;1.30;;
14472;SDS011;7322;50.872;4.386;2023-02-28T05:01:49;1.33;;;1.10;;
14472;SDS011;7322;50.872;4.386;2023-02-28T05:04:22;1.50;;;1.33;;
14472;SDS011;7322;50.872;4.386;2023-02-28T05:09:34;1.53;;;1.40;;
14472;SDS011;7322;50.872;4.386;2023-02-28T05:12:20;1.77;;;1.47;;
14472;SDS011;7322;50.872;4.386;2023-02-28T05:17:52;1.37;;;1.20;;
14472;SDS011;7322;50.872;4.386;2023-02-28T05:20:19;1.50;;;1.30;;
14472;SDS011;7322;50.872;4.386;2023-02-28T05:22:58;1.70;;;1.20;;
14472;SDS011;7322;50.872;4.386;2023-02-28T05:25:25;1.57;;;1.30;;
14472;SDS011;7322;50.872;4.386;2023-02-28T05:27:52;2.13;;;1.60;;
14472;SDS011;7322;50.872;4.386;2023-02-28T05:33:20;1.90;;;1.50;;
14472;SDS011;7322;50.872;4.386;2023-02-28T05:35:48;1.57;;;1.20;;
14472;SDS011;7322;50.872;4.386;2023-02-28T05:38:22;1.40;;;1.20;;
14472;SDS011;7322;50.872;4.386;2023-02-28T05:40:50;1.40;;;1.30;;
14472;SDS011;7322;50.872;4.386;2023-02-28T05:43:22;1.30;;;1.20;;
14472;SDS011;7322;50.872;4.386;2023-02-28T05:45:53;1.37;;;1.27;;
14472;SDS011;7322;50.872;4.386;2023-02-28T05:48:20;2.47;;;1.40;;
14472;SDS011;7322;50.872;4.386;2023-02-28T05:50:52;1.30;;;1.20;;
14472;SDS011;7322;50.872;4.386;2023-02-28T05:53:26;1.40;;;1.30;;
14472;SDS011;7322;50.872;4.386;2023-02-28T05:58:52;1.70;;;1.40;;
14472;SDS011;7322;50.872;4.386;2023-02-28T06:01:34;1.53;;;1.30;;
14472;SDS011;7322;50.872;4.386;2023-02-28T06:04:04;1.90;;;1.50;;
14472;SDS011;7322;50.872;4.386;2023-02-28T06:06:33;1.37;;;1.23;;
14472;SDS011;7322;50.872;4.386;2023-02-28T06:09:01;1.67;;;1.20;;
14472;SDS011;7322;50.872;4.386;2023-02-28T06:11:29;1.50;;;1.40;;
14472;SDS011;7322;50.872;4.386;2023-02-28T06:13:57;1.07;;;1.00;;
14472;SDS011;7322;50.872;4.386;2023-02-28T06:16:26;1.60;;;1.30;;
14472;SDS011;7322;50.872;4.386;2023-02-28T06:18:56;1.27;;;1.17;;
14472;SDS011;7322;50.872;4.386;2023-02-28T06:21:25;1.50;;;1.40;;
14472;SDS011;7322;50.872;4.386;2023-02-28T06:23:55;1.23;;;1.13;;
14472;SDS011;7322;50.872;4.386;2023-02-28T06:26:25;1.53;;;1.20;;
14472;SDS011;7322;50.872;4.386;2023-02-28T06:28:53;1.90;;;1.40;;
14472;SDS011;7322;50.872;4.386;2023-02-28T06:31:22;2.23;;;1.37;;
14472;SDS011;7322;50.872;4.386;2023-02-28T06:33:51;2.30;;;1.40;;
14472;SDS011;7322;50.872;4.386;2023-02-28T06:36:20;1.93;;;1.30;;
14472;SDS011;7322;50.872;4.386;2023-02-28T06:38:47;1.40;;;1.20;;
14472;SDS011;7322;50.872;4.386;2023-02-28T06:41:21;1.53;;;1.40;;
14472;SDS011;7322;50.872;4.386;2023-02-28T06:43:49;1.70;;;1.50;;
14472;SDS011;7322;50.872;4.386;2023-02-28T06:46:16;1.77;;;1.37;;
14472;SDS011;7322;50.872;4.386;2023-02-28T06:48:49;2.33;;;1.67;;
14472;SDS011;7322;50.872;4.386;2023-02-28T06:51:20;1.80;;;1.40;;
14472;SDS011;7322;50.872;4.386;2023-02-28T06:53:49;2.30;;;1.43;;
14472;SDS011;7322;50.872;4.386;2023-02-28T06:56:22;2.17;;;1.60;;
14472;SDS011;7322;50.872;4.386;2023-02-28T06:58:52;1.80;;;1.40;;
14472;SDS011;7322;50.872;4.386;2023-02-28T07:03:58;2.90;;;1.53;;
14472;SDS011;7322;50.872;4.386;2023-02-28T07:06:45;2.63;;;1.47;;
14472;SDS011;7322;50.872;4.386;2023-02-28T07:09:19;1.60;;;1.43;;
14472;SDS011;7322;50.872;4.386;2023-02-28T07:14:31;2.20;;;1.50;;
14472;SDS011;7322;50.872;4.386;2023-02-28T07:17:06;5.43;;;3.73;;
14472;SDS011;7322;50.872;4.386;2023-02-28T07:22:09;9.73;;;5.47;;
14472;SDS011;7322;50.872;4.386;2023-02-28T07:24:50;8.87;;;4.73;;
14472;SDS011;7322;50.872;4.386;2023-02-28T07:27:16;9.53;;;4.80;;
14472;SDS011;7322;50.872;4.386;2023-02-28T07:29:49;7.97;;;4.57;;
14472;SDS011;7322;50.872;4.386;2023-02-28T07:32:17;6.20;;;3.67;;
14472;SDS011;7322;50.872;4.386;2023-02-28T07:34:52;7.33;;;4.03;;
14472;SDS011;7322;50.872;4.386;2023-02-28T07:37:21;6.83;;;3.93;;
14472;SDS011;7322;50.872;4.386;2023-02-28T07:42:50;7.87;;;3.83;;
14472;SDS011;7322;50.872;4.386;2023-02-28T07:47:58;8.03;;;3.80;;
14472;SDS011;7322;50.872;4.386;2023-02-28T07:50:25;6.90;;;3.40;;
14472;SDS011;7322;50.872;4.386;2023-02-28T07:55:38;6.37;;;3.57;;
14472;SDS011;7322;50.872;4.386;2023-02-28T07:58:08;5.30;;;3.60;;
14472;SDS011;7322;50.872;4.386;2023-02-28T08:00:41;5.67;;;3.33;;
14472;SDS011;7322;50.872;4.386;2023-02-28T08:03:24;5.43;;;3.30;;
14472;SDS011;7322;50.872;4.386;2023-02-28T08:05:52;6.87;;;3.03;;
14472;SDS011;7322;50.872;4.386;2023-02-28T08:08:24;7.40;;;3.50;;
14472;SDS011;7322;50.872;4.386;2023-02-28T08:10:57;5.50;;;3.20;;
14472;SDS011;7322;50.872;4.386;2023-02-28T08:13:28;4.90;;;2.80;;
14472;SDS011;7322;50.872;4.386;2023-02-28T08:16:00;5.37;;;2.63;;
14472;SDS011;7322;50.872;4.386;2023-02-28T08:18:28;5.73;;;2.80;;
14472;SDS011;7322;50.872;4.386;2023-02-28T08:21:05;5.33;;;3.03;;
14472;SDS011;7322;50.872;4.386;2023-02-28T08:23:52;5.27;;;2.60;;
14472;SDS011;7322;50.872;4.386;2023-02-28T08:29:15;4.80;;;2.70;;
14472;SDS011;7322;50.872;4.386;2023-02-28T08:31:45;4.23;;;2.63;;
14472;SDS011;7322;50.872;4.386;2023-02-28T08:34:18;4.47;;;2.73;;
14472;SDS011;7322;50.872;4.386;2023-02-28T08:39:26;4.23;;;2.63;;
14472;SDS011;7322;50.872;4.386;2023-02-28T08:41:59;3.77;;;2.63;;
14472;SDS011;7322;50.872;4.386;2023-02-28T08:44:27;5.47;;;2.47;;
14472;SDS011;7322;50.872;4.386;2023-02-28T08:46:54;5.07;;;2.77;;
14472;SDS011;7322;50.872;4.386;2023-02-28T08:49:24;4.63;;;2.70;;
14472;SDS011;7322;50.872;4.386;2023-02-28T08:51:53;3.13;;;2.20;;
14472;SDS011;7322;50.872;4.386;2023-02-28T08:54:22;4.53;;;2.57;;
14472;SDS011;7322;50.872;4.386;2023-02-28T08:56:53;3.73;;;2.37;;
14472;SDS011;7322;50.872;4.386;2023-02-28T08:59:20;3.53;;;2.60;;
14472;SDS011;7322;50.872;4.386;2023-02-28T09:01:52;3.17;;;2.10;;
14472;SDS011;7322;50.872;4.386;2023-02-28T09:07:11;4.33;;;2.07;;
14472;SDS011;7322;50.872;4.386;2023-02-28T09:09:44;3.10;;;2.07;;
14472;SDS011;7322;50.872;4.386;2023-02-28T09:12:24;2.60;;;1.83;;
14472;SDS011;7322;50.872;4.386;2023-02-28T09:14:55;3.40;;;1.73;;
14472;SDS011;7322;50.872;4.386;2023-02-28T09:17:25;5.30;;;2.20;;
14472;SDS011;7322;50.872;4.386;2023-02-28T09:19:52;3.53;;;2.10;;
14472;SDS011;7322;50.872;4.386;2023-02-28T09:22:20;3.50;;;1.97;;
14472;SDS011;7322;50.872;4.386;2023-02-28T09:27:37;2.63;;;1.80;;
14472;SDS011;7322;50.872;4.386;2023-02-28T09:32:56;3.93;;;2.03;;
14472;SDS011;7322;50.872;4.386;2023-02-28T09:35:29;2.97;;;1.80;;
14472;SDS011;7322;50.872;4.386;2023-02-28T09:37:58;3.70;;;1.70;;
14472;SDS011;7322;50.872;4.386;2023-02-28T09:46:00;2.87;;;1.87;;
14472;SDS011;7322;50.872;4.386;2023-02-28T09:48:35;4.03;;;1.70;;
14472;SDS011;7322;50.872;4.386;2023-02-28T09:54:12;1.70;;;1.40;;
14472;SDS011;7322;50.872;4.386;2023-02-28T09:56:53;2.27;;;1.40;;
14472;SDS011;7322;50.872;4.386;2023-02-28T10:05:59;2.03;;;1.50;;
14472;SDS011;7322;50.872;4.386;2023-02-28T10:11:22;1.73;;;1.20;;
14472;SDS011;7322;50.872;4.386;2023-02-28T10:13:53;2.27;;;1.27;;
14472;SDS011;7322;50.872;4.386;2023-02-28T10:16:27;2.57;;;1.40;;
14472;SDS011;7322;50.872;4.386;2023-02-28T10:19:05;2.87;;;1.30;;
14472;SDS011;7322;50.872;4.386;2023-02-28T10:21:55;2.73;;;1.70;;
14472;SDS011;7322;50.872;4.386;2023-02-28T10:24:30;1.43;;;1.30;;
14472;SDS011;7322;50.872;4.386;2023-02-28T10:27:13;3.77;;;1.40;;
14472;SDS011;7322;50.872;4.386;2023-02-28T10:32:17;2.50;;;1.50;;
14472;SDS011;7322;50.872;4.386;2023-02-28T10:37:35;1.63;;;1.33;;
14472;SDS011;7322;50.872;4.386;2023-02-28T10:40:06;1.87;;;1.23;;
14472;SDS011;7322;50.872;4.386;2023-02-28T10:42:54;2.27;;;1.53;;
14472;SDS011;7322;50.872;4.386;2023-02-28T10:45:23;2.83;;;1.47;;
14472;SDS011;7322;50.872;4.386;2023-02-28T10:47:53;2.40;;;1.40;;
14472;SDS011;7322;50.872;4.386;2023-02-28T10:50:34;3.67;;;1.47;;
14472;SDS011;7322;50.872;4.386;2023-02-28T10:53:30;1.30;;;1.17;;
14472;SDS011;7322;50.872;4.386;2023-02-28T10:56:14;1.97;;;1.23;;
14472;SDS011;7322;50.872;4.386;2023-02-28T10:58:51;1.80;;;1.20;;
14472;SDS011;7322;50.872;4.386;2023-02-28T11:01:22;1.90;;;1.20;;
14472;SDS011;7322;50.872;4.386;2023-02-28T11:04:16;3.00;;;1.20;;
14472;SDS011;7322;50.872;4.386;2023-02-28T11:06:44;2.80;;;1.40;;
14472;SDS011;7322;50.872;4.386;2023-02-28T11:09:26;1.70;;;1.27;;
14472;SDS011;7322;50.872;4.386;2023-02-28T11:11:57;1.50;;;1.40;;
14472;SDS011;7322;50.872;4.386;2023-02-28T11:14:25;1.83;;;1.10;;
14472;SDS011;7322;50.872;4.386;2023-02-28T11:16:54;2.27;;;1.23;;
14472;SDS011;7322;50.872;4.386;2023-02-28T11:19:26;2.20;;;0.90;;
14472;SDS011;7322;50.872;4.386;2023-02-28T11:22:00;1.73;;;1.03;;
14472;SDS011;7322;50.872;4.386;2023-02-28T11:27:14;1.83;;;1.33;;
14472;SDS011;7322;50.872;4.386;2023-02-28T11:29:52;2.07;;;1.10;;
14472;SDS011;7322;50.872;4.386;2023-02-28T11:35:02;1.90;;;1.10;;
14472;SDS011;7322;50.872;4.386;2023-02-28T11:37:41;1.40;;;1.10;;
14472;SDS011;7322;50.872;4.386;2023-02-28T11:40:13;1.20;;;1.00;;
14472;SDS011;7322;50.872;4.386;2023-02-28T11:42:45;1.47;;;1.00;;
14472;SDS011;7322;50.872;4.386;2023-02-28T11:45:24;1.10;;;0.90;;
14472;SDS011;7322;50.872;4.386;2023-02-28T11:48:10;1.40;;;1.00;;
14472;SDS011;7322;50.872;4.386;2023-02-28T11:50:55;0.97;;;0.90;;
14472;SDS011;7322;50.872;4.386;2023-02-28T11:53:51;1.10;;;0.80;;
14472;SDS011;7322;50.872;4.386;2023-02-28T12:11:52;1.17;;;1.07;;
14472;SDS011;7322;50.872;4.386;2023-02-28T12:27:53;2.17;;;1.00;;
14472;SDS011;7322;50.872;4.386;2023-02-28T12:33:34;1.07;;;0.90;;
14472;SDS011;7322;50.872;4.386;2023-02-28T12:38:53;1.20;;;1.07;;
14472;SDS011;7322;50.872;4.386;2023-02-28T12:44:56;1.50;;;1.07;;
14472;SDS011;7322;50.872;4.386;2023-02-28T12:50:05;1.73;;;1.03;;
14472;SDS011;7322;50.872;4.386;2023-02-28T12:52:37;2.20;;;1.20;;
14472;SDS011;7322;50.872;4.386;2023-02-28T12:55:12;1.20;;;0.90;;
14472;SDS011;7322;50.872;4.386;2023-02-28T12:57:52;1.50;;;0.90;;
14472;SDS011;7322;50.872;4.386;2023-02-28T13:04:04;1.70;;;1.10;;
14472;SDS011;7322;50.872;4.386;2023-02-28T13:12:47;1.53;;;1.00;;
14472;SDS011;7322;50.872;4.386;2023-02-28T13:18:27;0.90;;;0.90;;
14472;SDS011;7322;50.872;4.386;2023-02-28T13:21:21;1.33;;;1.10;;
14472;SDS011;7322;50.872;4.386;2023-02-28T13:24:07;0.87;;;0.87;;
14472;SDS011;7322;50.872;4.386;2023-02-28T13:48:23;1.43;;;0.93;;
14472;SDS011;7322;50.872;4.386;2023-02-28T13:54:00;1.33;;;1.00;;
14472;SDS011;7322;50.872;4.386;2023-02-28T13:56:40;1.37;;;1.10;;
14472;SDS011;7322;50.872;4.386;2023-02-28T13:59:19;1.50;;;0.97;;
14472;SDS011;7322;50.872;4.386;2023-02-28T14:02:18;1.20;;;0.90;;
14472;SDS011;7322;50.872;4.386;2023-02-28T14:05:12;1.00;;;0.90;;
14472;SDS011;7322;50.872;4.386;2023-02-28T14:07:48;2.03;;;1.00;;
14472;SDS011;7322;50.872;4.386;2023-02-28T14:13:14;1.07;;;0.93;;
14472;SDS011;7322;50.872;4.386;2023-02-28T14:16:11;1.37;;;1.17;;
14472;SDS011;7322;50.872;4.386;2023-02-28T14:18:48;2.47;;;1.10;;
14472;SDS011;7322;50.872;4.386;2023-02-28T14:24:51;1.83;;;0.80;;
14472;SDS011;7322;50.872;4.386;2023-02-28T14:27:44;1.73;;;0.83;;
14472;SDS011;7322;50.872;4.386;2023-02-28T14:33:27;0.90;;;0.70;;
14472;SDS011;7322;50.872;4.386;2023-02-28T14:36:10;1.20;;;0.80;;
14472;SDS011;7322;50.872;4.386;2023-02-28T14:38:56;1.23;;;0.90;;
14472;SDS011;7322;50.872;4.386;2023-02-28T14:41:37;2.27;;;0.70;;
14472;SDS011;7322;50.872;4.386;2023-02-28T14:44:15;3.07;;;0.80;;
14472;SDS011;7322;50.872;4.386;2023-02-28T14:52:22;1.83;;;0.80;;
14472;SDS011;7322;50.872;4.386;2023-02-28T14:55:01;0.63;;;0.63;;
14472;SDS011;7322;50.872;4.386;2023-02-28T15:02:56;1.43;;;0.80;;
14472;SDS011;7322;50.872;4.386;2023-02-28T15:05:26;1.10;;;0.80;;
14472;SDS011;7322;50.872;4.386;2023-02-28T15:08:06;0.90;;;0.80;;
14472;SDS011;7322;50.872;4.386;2023-02-28T15:10:45;1.17;;;0.63;;
14472;SDS011;7322;50.872;4.386;2023-02-28T15:13:21;1.13;;;0.90;;
14472;SDS011;7322;50.872;4.386;2023-02-28T15:15:52;1.27;;;0.97;;
14472;SDS011;7322;50.872;4.386;2023-02-28T15:18:38;0.90;;;0.70;;
14472;SDS011;7322;50.872;4.386;2023-02-28T15:21:14;1.00;;;0.90;;
14472;SDS011;7322;50.872;4.386;2023-02-28T15:26:46;1.83;;;0.90;;
14472;SDS011;7322;50.872;4.386;2023-02-28T15:29:23;1.47;;;0.90;;
14472;SDS011;7322;50.872;4.386;2023-02-28T15:38:24;2.53;;;1.10;;
14472;SDS011;7322;50.872;4.386;2023-02-28T15:44:14;1.77;;;0.90;;
14472;SDS011;7322;50.872;4.386;2023-02-28T15:46:53;1.27;;;0.83;;
14472;SDS011;7322;50.872;4.386;2023-02-28T15:49:24;3.70;;;1.00;;
14472;SDS011;7322;50.872;4.386;2023-02-28T15:51:52;3.67;;;0.90;;
14472;SDS011;7322;50.872;4.386;2023-02-28T15:54:27;3.07;;;0.90;;
14472;SDS011;7322;50.872;4.386;2023-02-28T15:56:57;2.10;;;1.00;;
14472;SDS011;7322;50.872;4.386;2023-02-28T15:59:29;2.67;;;1.00;;
14472;SDS011;7322;50.872;4.386;2023-02-28T16:05:22;1.73;;;0.80;;
14472;SDS011;7322;50.872;4.386;2023-02-28T16:11:25;2.10;;;0.60;;
14472;SDS011;7322;50.872;4.386;2023-02-28T16:17:02;2.00;;;0.80;;
14472;SDS011;7322;50.872;4.386;2023-02-28T16:22:09;1.00;;;0.77;;
14472;SDS011;7322;50.872;4.386;2023-02-28T16:27:19;2.90;;;0.90;;
14472;SDS011;7322;50.872;4.386;2023-02-28T16:36:15;2.27;;;0.90;;
14472;SDS011;7322;50.872;4.386;2023-02-28T16:38:45;1.63;;;0.83;;
14472;SDS011;7322;50.872;4.386;2023-02-28T16:41:22;1.17;;;0.83;;
14472;SDS011;7322;50.872;4.386;2023-02-28T16:43:58;2.00;;;0.80;;
14472;SDS011;7322;50.872;4.386;2023-02-28T16:46:31;1.10;;;0.80;;
14472;SDS011;7322;50.872;4.386;2023-02-28T16:51:50;1.47;;;0.90;;
14472;SDS011;7322;50.872;4.386;2023-02-28T16:54:30;1.03;;;0.90;;
14472;SDS011;7322;50.872;4.386;2023-02-28T17:00:14;1.80;;;1.00;;
14472;SDS011;7322;50.872;4.386;2023-02-28T17:02:43;0.90;;;0.70;;
14472;SDS011;7322;50.872;4.386;2023-02-28T17:05:22;1.23;;;0.80;;
14472;SDS011;7322;50.872;4.386;2023-02-28T17:07:55;1.67;;;0.80;;
14472;SDS011;7322;50.872;4.386;2023-02-28T17:13:13;1.73;;;0.83;;
14472;SDS011;7322;50.872;4.386;2023-02-28T17:15:55;1.17;;;0.97;;
14472;SDS011;7322;50.872;4.386;2023-02-28T17:18:25;2.53;;;1.00;;
14472;SDS011;7322;50.872;4.386;2023-02-28T17:23:47;2.17;;;1.10;;
14472;SDS011;7322;50.872;4.386;2023-02-28T17:32:03;5.33;;;3.80;;
14472;SDS011;7322;50.872;4.386;2023-02-28T17:34:30;6.10;;;3.77;;
14472;SDS011;7322;50.872;4.386;2023-02-28T17:36:57;5.03;;;3.70;;
14472;SDS011;7322;50.872;4.386;2023-02-28T17:42:11;5.50;;;4.13;;
14472;SDS011;7322;50.872;4.386;2023-02-28T17:44:38;6.50;;;4.40;;
14472;SDS011;7322;50.872;4.386;2023-02-28T17:47:12;9.27;;;4.27;;
14472;SDS011;7322;50.872;4.386;2023-02-28T17:49:49;6.43;;;3.80;;
14472;SDS011;7322;50.872;4.386;2023-02-28T17:55:02;8.47;;;5.10;;
14472;SDS011;7322;50.872;4.386;2023-02-28T17:57:30;6.00;;;4.23;;
14472;SDS011;7322;50.872;4.386;2023-02-28T17:59:57;6.30;;;4.77;;
14472;SDS011;7322;50.872;4.386;2023-02-28T18:02:32;7.13;;;5.20;;
14472;SDS011;7322;50.872;4.386;2023-02-28T18:05:02;8.17;;;5.17;;
14472;SDS011;7322;50.872;4.386;2023-02-28T18:07:30;6.00;;;5.00;;
14472;SDS011;7322;50.872;4.386;2023-02-28T18:09:58;6.43;;;4.97;;
14472;SDS011;7322;50.872;4.386;2023-02-28T18:12:38;6.67;;;4.63;;
14472;SDS011;7322;50.872;4.386;2023-02-28T18:15:07;7.93;;;5.37;;
14472;SDS011;7322;50.872;4.386;2023-02-28T18:17:37;7.17;;;5.17;;
14472;SDS011;7322;50.872;4.386;2023-02-28T18:20:14;6.80;;;5.20;;
14472;SDS011;7322;50.872;4.386;2023-02-28T18:22:43;7.07;;;4.80;;
14472;SDS011;7322;50.872;4.386;2023-02-28T18:25:15;8.23;;;5.50;;
14472;SDS011;7322;50.872;4.386;2023-02-28T18:27:45;8.93;;;5.00;;
14472;SDS011;7322;50.872;4.386;2023-02-28T18:30:27;6.77;;;5.13;;
14472;SDS011;7322;50.872;4.386;2023-02-28T18:33:00;8.27;;;4.83;;
14472;SDS011;7322;50.872;4.386;2023-02-28T18:35:29;7.67;;;4.93;;
14472;SDS011;7322;50.872;4.386;2023-02-28T18:38:07;6.17;;;4.57;;
14472;SDS011;7322;50.872;4.386;2023-02-28T18:40:40;7.87;;;4.80;;
14472;SDS011;7322;50.872;4.386;2023-02-28T18:43:10;7.00;;;5.13;;
14472;SDS011;7322;50.872;4.386;2023-02-28T18:45:37;7.43;;;5.23;;
14472;SDS011;7322;50.872;4.386;2023-02-28T18:48:08;6.63;;;4.37;;
14472;SDS011;7322;50.872;4.386;2023-02-28T18:53:21;6.73;;;4.80;;
14472;SDS011;7322;50.872;4.386;2023-02-28T19:01:51;6.53;;;4.73;;
14472;SDS011;7322;50.872;4.386;2023-02-28T19:04:28;6.93;;;4.57;;
14472;SDS011;7322;50.872;4.386;2023-02-28T19:07:08;6.73;;;5.20;;
14472;SDS011;7322;50.872;4.386;2023-02-28T19:29:23;7.30;;;4.57;;
14472;SDS011;7322;50.872;4.386;2023-02-28T19:46:26;7.77;;;4.37;;
14472;SDS011;7322;50.872;4.386;2023-02-28T19:51:52;6.33;;;4.40;;
14472;SDS011;7322;50.872;4.386;2023-02-28T19:57:11;7.23;;;4.67;;
14472;SDS011;7322;50.872;4.386;2023-02-28T19:59:45;6.10;;;4.73;;
14472;SDS011;7322;50.872;4.386;2023-02-28T20:02:32;6.47;;;4.80;;
14472;SDS011;7322;50.872;4.386;2023-02-28T20:05:00;5.70;;;4.30;;
14472;SDS011;7322;50.872;4.386;2023-02-28T20:07:27;5.70;;;4.30;;
14472;SDS011;7322;50.872;4.386;2023-02-28T20:09:56;6.67;;;4.90;;
14472;SDS011;7322;50.872;4.386;2023-02-28T20:12:29;6.53;;;4.77;;
14472;SDS011;7322;50.872;4.386;2023-02-28T20:14:59;8.00;;;5.07;;
14472;SDS011;7322;50.872;4.386;2023-02-28T20:17:26;7.43;;;4.80;;
14472;SDS011;7322;50.872;4.386;2023-02-28T20:19:56;6.57;;;4.80;;
14472;SDS011;7322;50.872;4.386;2023-02-28T20:22:24;6.13;;;5.00;;
14472;SDS011;7322;50.872;4.386;2023-02-28T20:24:54;6.23;;;4.80;;
14472;SDS011;7322;50.872;4.386;2023-02-28T20:27:27;6.10;;;4.73;;
14472;SDS011;7322;50.872;4.386;2023-02-28T20:30:02;7.97;;;5.10;;
14472;SDS011;7322;50.872;4.386;2023-02-28T20:32:33;6.00;;;4.63;;
14472;SDS011;7322;50.872;4.386;2023-02-28T20:35:05;5.70;;;4.47;;
14472;SDS011;7322;50.872;4.386;2023-02-28T20:37:45;6.63;;;5.00;;
14472;SDS011;7322;50.872;4.386;2023-02-28T20:40:14;6.87;;;4.70;;
14472;SDS011;7322;50.872;4.386;2023-02-28T20:42:42;6.13;;;5.00;;
14472;SDS011;7322;50.872;4.386;2023-02-28T20:45:16;6.20;;;4.60;;
14472;SDS011;7322;50.872;4.386;2023-02-28T20:47:43;6.20;;;4.43;;
14472;SDS011;7322;50.872;4.386;2023-02-28T20:50:13;6.20;;;4.20;;
14472;SDS011;7322;50.872;4.386;2023-02-28T20:52:42;5.83;;;4.33;;
14472;SDS011;7322;50.872;4.386;2023-02-28T20:55:09;6.37;;;4.40;;
14472;SDS011;7322;50.872;4.386;2023-02-28T20:57:38;6.97;;;4.57;;
14472;SDS011;7322;50.872;4.386;2023-02-28T21:02:40;5.23;;;4.33;;
14472;SDS011;7322;50.872;4.386;2023-02-28T21:05:07;8.30;;;4.90;;
14472;SDS011;7322;50.872;4.386;2023-02-28T21:07:37;6.07;;;4.50;;
14472;SDS011;7322;50.872;4.386;2023-02-28T21:10:04;6.03;;;4.70;;
14472;SDS011;7322;50.872;4.386;2023-02-28T21:12:32;6.17;;;4.57;;
14472;SDS011;7322;50.872;4.386;2023-02-28T21:15:04;5.60;;;4.60;;
14472;SDS011;7322;50.872;4.386;2023-02-28T21:17:35;5.57;;;4.40;;
14472;SDS011;7322;50.872;4.386;2023-02-28T21:20:10;6.93;;;4.77;;
14472;SDS011;7322;50.872;4.386;2023-02-28T21:23:04;6.87;;;4.70;;
14472;SDS011;7322;50.872;4.386;2023-02-28T21:25:33;6.93;;;4.53;;
14472;SDS011;7322;50.872;4.386;2023-02-28T21:28:01;6.17;;;4.60;;
14472;SDS011;7322;50.872;4.386;2023-02-28T21:30:29;5.80;;;4.20;;